Terminal Aerodrome Forecast
Issued by NWS

Home | Current Version | Previous Version | Text Only | Print | Product List | Glossary On
Versions: 1 2 3 4 5 6 7 8 9 10 11 12 13 14 15 16 17
736
FTUS43 KMQT 251733
TAFIWD
TAF
KIWD 251733Z 2518/2618 25020G30KT P6SM BKN015
      TEMPO 2518/2521 2SM -SHSN BLSN
     FM252100 24015G26KT P6SM BKN015
     FM260500 25011KT P6SM BKN015
     FM260700 24010KT P6SM SCT015
     FM261100 22008KT P6SM FEW150=

USA.gov is the U.S. government's official web portal to all federal, state and local government web resources and services.